sensor_id;sensor_type;location;lat;lon;timestamp;pressure;altitude;pressure_sealevel;temperature;humidity
72857;BME280;62742;52.136;4.500;2022-09-09T00:00:58;100776.19;;;16.41;79.28
72857;BME280;62742;52.136;4.500;2022-09-09T00:04:00;100766.44;;;16.41;79.22
72857;BME280;62742;52.136;4.500;2022-09-09T00:06:43;100768.72;;;16.29;79.58
72857;BME280;62742;52.136;4.500;2022-09-09T00:09:18;100759.88;;;16.30;79.69
72857;BME280;62742;52.136;4.500;2022-09-09T00:12:06;100766.09;;;16.29;79.58
72857;BME280;62742;52.136;4.500;2022-09-09T00:15:00;100770.25;;;16.34;79.58
72857;BME280;62742;52.136;4.500;2022-09-09T00:17:57;100765.59;;;16.19;79.82
72857;BME280;62742;52.136;4.500;2022-09-09T00:23:28;100765.16;;;16.07;80.55
72857;BME280;62742;52.136;4.500;2022-09-09T00:26:10;100760.78;;;16.06;80.28
72857;BME280;62742;52.136;4.500;2022-09-09T00:28:58;100767.09;;;16.04;80.53
72857;BME280;62742;52.136;4.500;2022-09-09T00:31:31;100760.28;;;16.19;80.34
72857;BME280;62742;52.136;4.500;2022-09-09T00:34:02;100763.44;;;16.06;80.79
72857;BME280;62742;52.136;4.500;2022-09-09T00:36:37;100760.03;;;16.03;80.85
72857;BME280;62742;52.136;4.500;2022-09-09T00:39:05;100761.09;;;15.99;81.32
72857;BME280;62742;52.136;4.500;2022-09-09T00:44:31;100762.00;;;15.98;80.60
72857;BME280;62742;52.136;4.500;2022-09-09T00:47:24;100756.59;;;16.01;80.96
72857;BME280;62742;52.136;4.500;2022-09-09T00:50:33;100750.84;;;15.89;81.69
72857;BME280;62742;52.136;4.500;2022-09-09T00:56:28;100748.00;;;15.70;82.24
72857;BME280;62742;52.136;4.500;2022-09-09T01:01:58;100748.56;;;15.80;81.25
72857;BME280;62742;52.136;4.500;2022-09-09T01:04:33;100751.38;;;15.76;81.08
72857;BME280;62742;52.136;4.500;2022-09-09T01:07:10;100751.41;;;15.74;81.58
72857;BME280;62742;52.136;4.500;2022-09-09T01:09:58;100752.31;;;15.73;81.06
72857;BME280;62742;52.136;4.500;2022-09-09T01:12:38;100741.13;;;15.66;81.54
72857;BME280;62742;52.136;4.500;2022-09-09T01:15:17;100748.28;;;15.63;81.58
72857;BME280;62742;52.136;4.500;2022-09-09T01:18:04;100744.28;;;15.52;81.90
72857;BME280;62742;52.136;4.500;2022-09-09T01:27:01;100731.34;;;15.45;81.80
72857;BME280;62742;52.136;4.500;2022-09-09T01:29:30;100731.03;;;15.52;81.42
72857;BME280;62742;52.136;4.500;2022-09-09T01:31:59;100729.59;;;15.44;81.71
72857;BME280;62742;52.136;4.500;2022-09-09T01:34:34;100727.78;;;15.46;81.20
72857;BME280;62742;52.136;4.500;2022-09-09T01:37:08;100727.63;;;15.49;81.46
72857;BME280;62742;52.136;4.500;2022-09-09T01:39:39;100726.16;;;15.42;81.50
72857;BME280;62742;52.136;4.500;2022-09-09T01:42:10;100720.28;;;15.33;81.63
72857;BME280;62742;52.136;4.500;2022-09-09T01:44:40;100721.16;;;15.34;81.50
72857;BME280;62742;52.136;4.500;2022-09-09T01:47:07;100716.78;;;15.33;81.19
72857;BME280;62742;52.136;4.500;2022-09-09T01:49:33;100716.19;;;15.25;81.29
72857;BME280;62742;52.136;4.500;2022-09-09T01:52:00;100716.28;;;15.22;81.28
72857;BME280;62742;52.136;4.500;2022-09-09T01:54:30;100710.19;;;15.20;81.07
72857;BME280;62742;52.136;4.500;2022-09-09T01:57:22;100704.91;;;15.20;80.21
72857;BME280;62742;52.136;4.500;2022-09-09T02:00:08;100709.81;;;15.07;80.61
72857;BME280;62742;52.136;4.500;2022-09-09T02:02:59;100710.72;;;15.06;80.74
72857;BME280;62742;52.136;4.500;2022-09-09T02:08:17;100706.47;;;15.02;80.31
72857;BME280;62742;52.136;4.500;2022-09-09T02:11:03;100707.53;;;14.96;80.38
72857;BME280;62742;52.136;4.500;2022-09-09T02:13:37;100705.81;;;14.95;80.40
72857;BME280;62742;52.136;4.500;2022-09-09T02:16:08;100709.47;;;14.91;80.63
72857;BME280;62742;52.136;4.500;2022-09-09T02:19:34;100706.97;;;14.88;80.53
72857;BME280;62742;52.136;4.500;2022-09-09T02:21:59;100701.19;;;14.76;80.82
72857;BME280;62742;52.136;4.500;2022-09-09T02:24:29;100697.63;;;14.77;80.66
72857;BME280;62742;52.136;4.500;2022-09-09T02:27:03;100691.63;;;14.72;80.93
72857;BME280;62742;52.136;4.500;2022-09-09T02:29:39;100687.16;;;14.74;80.30
72857;BME280;62742;52.136;4.500;2022-09-09T02:32:21;100687.16;;;14.74;80.15
72857;BME280;62742;52.136;4.500;2022-09-09T02:34:59;100682.81;;;14.72;80.46
72857;BME280;62742;52.136;4.500;2022-09-09T02:37:37;100672.22;;;14.72;80.22
72857;BME280;62742;52.136;4.500;2022-09-09T02:40:06;100670.72;;;14.65;80.75
72857;BME280;62742;52.136;4.500;2022-09-09T02:42:43;100669.19;;;14.57;80.68
72857;BME280;62742;52.136;4.500;2022-09-09T02:45:13;100670.28;;;14.52;81.30
72857;BME280;62742;52.136;4.500;2022-09-09T02:50:50;100672.00;;;14.53;80.80
72857;BME280;62742;52.136;4.500;2022-09-09T02:56:39;100674.03;;;14.45;80.90
72857;BME280;62742;52.136;4.500;2022-09-09T02:59:08;100674.25;;;14.38;81.37
72857;BME280;62742;52.136;4.500;2022-09-09T03:01:36;100672.53;;;14.37;81.40
72857;BME280;62742;52.136;4.500;2022-09-09T03:04:03;100677.00;;;14.35;81.32
72857;BME280;62742;52.136;4.500;2022-09-09T03:06:31;100676.19;;;14.33;81.14
72857;BME280;62742;52.136;4.500;2022-09-09T03:08:57;100683.91;;;14.39;80.66
72857;BME280;62742;52.136;4.500;2022-09-09T03:11:27;100674.34;;;14.35;80.84
72857;BME280;62742;52.136;4.500;2022-09-09T03:13:54;100675.25;;;14.34;81.06
72857;BME280;62742;52.136;4.500;2022-09-09T03:16:23;100673.56;;;14.33;80.99
72857;BME280;62742;52.136;4.500;2022-09-09T03:18:49;100667.44;;;14.31;81.16
72857;BME280;62742;52.136;4.500;2022-09-09T03:21:16;100659.72;;;14.25;81.35
72857;BME280;62742;52.136;4.500;2022-09-09T03:23:42;100665.06;;;14.24;81.47
72857;BME280;62742;52.136;4.500;2022-09-09T03:26:11;100665.03;;;14.25;81.36
72857;BME280;62742;52.136;4.500;2022-09-09T03:28:37;100662.56;;;14.19;81.44
72857;BME280;62742;52.136;4.500;2022-09-09T03:31:05;100670.53;;;14.17;81.62
72857;BME280;62742;52.136;4.500;2022-09-09T03:33:32;100659.31;;;14.11;81.63
72857;BME280;62742;52.136;4.500;2022-09-09T03:35:58;100660.25;;;14.10;81.73
72857;BME280;62742;52.136;4.500;2022-09-09T03:38:25;100660.34;;;14.07;82.11
72857;BME280;62742;52.136;4.500;2022-09-09T03:40:53;100648.91;;;14.06;82.05
72857;BME280;62742;52.136;4.500;2022-09-09T03:43:22;100652.41;;;14.07;81.76
72857;BME280;62742;52.136;4.500;2022-09-09T03:45:53;100655.88;;;14.09;81.71
72857;BME280;62742;52.136;4.500;2022-09-09T03:48:23;100655.97;;;14.06;81.72
72857;BME280;62742;52.136;4.500;2022-09-09T03:50:52;100653.44;;;14.02;81.89
72857;BME280;62742;52.136;4.500;2022-09-09T03:53:21;100656.09;;;14.02;81.95
72857;BME280;62742;52.136;4.500;2022-09-09T03:55:51;100654.44;;;13.98;81.63
72857;BME280;62742;52.136;4.500;2022-09-09T03:58:22;100665.09;;;13.95;82.20
72857;BME280;62742;52.136;4.500;2022-09-09T04:01:00;100656.19;;;13.99;81.52
72857;BME280;62742;52.136;4.500;2022-09-09T04:03:40;100652.88;;;13.93;81.52
72857;BME280;62742;52.136;4.500;2022-09-09T04:06:09;100650.28;;;13.91;81.70
72857;BME280;62742;52.136;4.500;2022-09-09T04:08:37;100649.56;;;13.86;81.77
72857;BME280;62742;52.136;4.500;2022-09-09T04:11:05;100646.03;;;13.87;81.64
72857;BME280;62742;52.136;4.500;2022-09-09T04:13:33;100644.31;;;13.84;81.56
72857;BME280;62742;52.136;4.500;2022-09-09T04:16:02;100629.34;;;13.85;81.58
72857;BME280;62742;52.136;4.500;2022-09-09T04:18:30;100640.94;;;13.81;81.71
72857;BME280;62742;52.136;4.500;2022-09-09T04:20:57;100638.28;;;13.81;81.97
72857;BME280;62742;52.136;4.500;2022-09-09T04:23:25;100625.19;;;13.78;81.74
72857;BME280;62742;52.136;4.500;2022-09-09T04:25:56;100623.56;;;13.74;81.76
72857;BME280;62742;52.136;4.500;2022-09-09T04:28:25;100622.88;;;13.67;82.15
72857;BME280;62742;52.136;4.500;2022-09-09T04:30:54;100617.66;;;13.65;82.17
72857;BME280;62742;52.136;4.500;2022-09-09T04:33:24;100627.25;;;13.68;82.08
72857;BME280;62742;52.136;4.500;2022-09-09T04:35:53;100622.13;;;13.63;82.48
72857;BME280;62742;52.136;4.500;2022-09-09T04:38:20;100631.03;;;13.59;82.34
72857;BME280;62742;52.136;4.500;2022-09-09T04:40:50;100625.66;;;13.62;82.08
72857;BME280;62742;52.136;4.500;2022-09-09T04:43:17;100623.97;;;13.61;82.06
72857;BME280;62742;52.136;4.500;2022-09-09T04:45:49;100610.69;;;13.63;81.91
72857;BME280;62742;52.136;4.500;2022-09-09T04:48:20;100618.81;;;13.57;82.30
72857;BME280;62742;52.136;4.500;2022-09-09T04:50:54;100621.50;;;13.55;82.32
72857;BME280;62742;52.136;4.500;2022-09-09T04:53:25;100617.28;;;13.50;82.54
72857;BME280;62742;52.136;4.500;2022-09-09T04:56:09;100615.47;;;13.52;82.55
72857;BME280;62742;52.136;4.500;2022-09-09T04:58:41;100610.25;;;13.49;82.84
72857;BME280;62742;52.136;4.500;2022-09-09T05:01:17;100611.06;;;13.51;82.65
72857;BME280;62742;52.136;4.500;2022-09-09T05:03:46;100612.88;;;13.50;82.68
72857;BME280;62742;52.136;4.500;2022-09-09T05:06:14;100614.66;;;13.50;82.73
72857;BME280;62742;52.136;4.500;2022-09-09T05:08:45;100614.69;;;13.48;82.57
72857;BME280;62742;52.136;4.500;2022-09-09T05:11:19;100612.06;;;13.48;82.86
72857;BME280;62742;52.136;4.500;2022-09-09T05:13:48;100612.06;;;13.48;82.93
72857;BME280;62742;52.136;4.500;2022-09-09T05:16:16;100618.00;;;13.55;82.86
72857;BME280;62742;52.136;4.500;2022-09-09T05:18:44;100608.22;;;13.58;83.00
72857;BME280;62742;52.136;4.500;2022-09-09T05:21:13;100611.53;;;13.65;83.11
72857;BME280;62742;52.136;4.500;2022-09-09T05:23:41;100612.28;;;13.69;82.94
72857;BME280;62742;52.136;4.500;2022-09-09T05:26:12;100608.31;;;13.55;83.25
72857;BME280;62742;52.136;4.500;2022-09-09T05:28:40;100609.31;;;13.51;83.87
72857;BME280;62742;52.136;4.500;2022-09-09T05:31:09;100600.19;;;13.61;83.29
72857;BME280;62742;52.136;4.500;2022-09-09T05:33:43;100604.53;;;13.62;83.16
72857;BME280;62742;52.136;4.500;2022-09-09T05:36:14;100608.03;;;13.63;83.97
72857;BME280;62742;52.136;4.500;2022-09-09T05:38:41;100595.63;;;13.67;83.73
72857;BME280;62742;52.136;4.500;2022-09-09T05:41:08;100594.50;;;13.74;83.76
72857;BME280;62742;52.136;4.500;2022-09-09T05:43:37;100597.81;;;13.80;83.66
72857;BME280;62742;52.136;4.500;2022-09-09T05:46:09;100608.72;;;13.96;83.55
72857;BME280;62742;52.136;4.500;2022-09-09T05:48:42;100600.22;;;14.13;83.89
72857;BME280;62742;52.136;4.500;2022-09-09T05:51:16;100600.94;;;14.18;84.36
72857;BME280;62742;52.136;4.500;2022-09-09T05:53:46;100604.22;;;14.25;84.33
72857;BME280;62742;52.136;4.500;2022-09-09T05:56:16;100607.25;;;14.39;84.60
72857;BME280;62742;52.136;4.500;2022-09-09T05:58:45;100612.31;;;14.46;85.05
72857;BME280;62742;52.136;4.500;2022-09-09T06:01:17;100628.78;;;14.54;85.37
72857;BME280;62742;52.136;4.500;2022-09-09T06:03:47;100625.06;;;14.85;85.57
72857;BME280;62742;52.136;4.500;2022-09-09T06:06:19;100615.50;;;15.04;85.03
72857;BME280;62742;52.136;4.500;2022-09-09T06:08:51;100621.84;;;15.00;85.71
72857;BME280;62742;52.136;4.500;2022-09-09T06:11:21;100616.59;;;14.99;86.08
72857;BME280;62742;52.136;4.500;2022-09-09T06:13:50;100615.56;;;15.03;85.61
72857;BME280;62742;52.136;4.500;2022-09-09T06:16:22;100626.34;;;14.98;86.27
72857;BME280;62742;52.136;4.500;2022-09-09T06:18:51;100619.31;;;14.97;86.76
72857;BME280;62742;52.136;4.500;2022-09-09T06:21:24;100625.06;;;15.08;85.91
72857;BME280;62742;52.136;4.500;2022-09-09T06:23:52;100623.91;;;15.15;85.52
72857;BME280;62742;52.136;4.500;2022-09-09T06:26:30;100622.16;;;15.14;85.70
72857;BME280;62742;52.136;4.500;2022-09-09T06:28:59;100618.34;;;15.22;84.65
72857;BME280;62742;52.136;4.500;2022-09-09T06:31:29;100618.97;;;15.28;85.02
72857;BME280;62742;52.136;4.500;2022-09-09T06:33:58;100620.59;;;15.32;85.25
72857;BME280;62742;52.136;4.500;2022-09-09T06:36:27;100620.41;;;15.37;84.07
72857;BME280;62742;52.136;4.500;2022-09-09T06:38:56;100623.22;;;15.56;83.47
72857;BME280;62742;52.136;4.500;2022-09-09T06:41:25;100627.75;;;15.52;83.80
72857;BME280;62742;52.136;4.500;2022-09-09T06:43:53;100629.38;;;15.57;84.39
72857;BME280;62742;52.136;4.500;2022-09-09T06:46:24;100625.78;;;15.58;84.77
72857;BME280;62742;52.136;4.500;2022-09-09T06:48:55;100628.25;;;15.62;84.73
72857;BME280;62742;52.136;4.500;2022-09-09T06:51:33;100620.25;;;15.64;84.54
72857;BME280;62742;52.136;4.500;2022-09-09T06:54:02;100625.72;;;15.59;85.05
72857;BME280;62742;52.136;4.500;2022-09-09T06:56:32;100620.13;;;15.67;84.20
72857;BME280;62742;52.136;4.500;2022-09-09T06:59:03;100624.56;;;15.66;83.99
72857;BME280;62742;52.136;4.500;2022-09-09T07:01:33;100622.72;;;15.68;83.97
72857;BME280;62742;52.136;4.500;2022-09-09T07:04:03;100622.81;;;15.65;84.27
72857;BME280;62742;52.136;4.500;2022-09-09T07:06:35;100626.38;;;15.64;84.70
72857;BME280;62742;52.136;4.500;2022-09-09T07:09:11;100621.25;;;15.83;82.31
72857;BME280;62742;52.136;4.500;2022-09-09T07:11:45;100626.22;;;15.91;82.38
72857;BME280;62742;52.136;4.500;2022-09-09T07:14:13;100628.88;;;15.91;82.61
72857;BME280;62742;52.136;4.500;2022-09-09T07:16:41;100622.09;;;16.06;82.31
72857;BME280;62742;52.136;4.500;2022-09-09T07:19:11;100623.34;;;16.18;81.51
72857;BME280;62742;52.136;4.500;2022-09-09T07:21:38;100617.06;;;16.20;82.47
72857;BME280;62742;52.136;4.500;2022-09-09T07:24:06;100623.31;;;16.19;81.63
72857;BME280;62742;52.136;4.500;2022-09-09T07:26:38;100614.88;;;16.30;81.15
72857;BME280;62742;52.136;4.500;2022-09-09T07:29:05;100613.53;;;16.20;80.46
72857;BME280;62742;52.136;4.500;2022-09-09T07:31:35;100616.06;;;16.23;80.47
72857;BME280;62742;52.136;4.500;2022-09-09T07:34:04;100613.13;;;16.29;79.85
72857;BME280;62742;52.136;4.500;2022-09-09T07:36:33;100617.59;;;16.29;80.61
72857;BME280;62742;52.136;4.500;2022-09-09T07:39:05;100617.84;;;16.22;81.08
72857;BME280;62742;52.136;4.500;2022-09-09T07:41:40;100622.34;;;16.20;81.38
72857;BME280;62742;52.136;4.500;2022-09-09T07:44:18;100619.69;;;16.41;79.70
72857;BME280;62742;52.136;4.500;2022-09-09T07:46:51;100618.38;;;16.31;80.64
72857;BME280;62742;52.136;4.500;2022-09-09T07:49:17;100619.75;;;16.39;80.76
72857;BME280;62742;52.136;4.500;2022-09-09T07:51:46;100621.69;;;16.36;80.92
72857;BME280;62742;52.136;4.500;2022-09-09T07:54:18;100629.25;;;16.24;81.08
72857;BME280;62742;52.136;4.500;2022-09-09T07:56:50;100622.78;;;16.32;80.47
72857;BME280;62742;52.136;4.500;2022-09-09T07:59:18;100615.72;;;16.31;80.68
72857;BME280;62742;52.136;4.500;2022-09-09T08:01:50;100620.91;;;16.34;79.73
72857;BME280;62742;52.136;4.500;2022-09-09T08:04:21;100623.44;;;16.37;80.56
72857;BME280;62742;52.136;4.500;2022-09-09T08:06:59;100626.22;;;16.34;80.70
72857;BME280;62742;52.136;4.500;2022-09-09T08:09:27;100621.81;;;16.53;79.57
72857;BME280;62742;52.136;4.500;2022-09-09T08:11:56;100616.78;;;16.47;79.87
72857;BME280;62742;52.136;4.500;2022-09-09T08:14:24;100617.19;;;16.38;80.33
72857;BME280;62742;52.136;4.500;2022-09-09T08:16:51;100630.72;;;16.52;79.56
72857;BME280;62742;52.136;4.500;2022-09-09T08:19:19;100624.94;;;16.63;78.33
72857;BME280;62742;52.136;4.500;2022-09-09T08:21:46;100619.13;;;16.74;78.97
72857;BME280;62742;52.136;4.500;2022-09-09T08:24:13;100625.84;;;16.82;78.83
72857;BME280;62742;52.136;4.500;2022-09-09T08:26:45;100630.34;;;16.80;79.04
72857;BME280;62742;52.136;4.500;2022-09-09T08:29:15;100618.69;;;16.85;78.77
72857;BME280;62742;52.136;4.500;2022-09-09T08:31:52;100614.81;;;16.92;79.45
72857;BME280;62742;52.136;4.500;2022-09-09T08:34:21;100620.34;;;16.87;77.68
72857;BME280;62742;52.136;4.500;2022-09-09T08:36:48;100615.28;;;17.01;78.49
72857;BME280;62742;52.136;4.500;2022-09-09T08:39:18;100616.19;;;17.00;78.29
72857;BME280;62742;52.136;4.500;2022-09-09T08:53:22;100626.81;;;17.00;78.54
72857;BME280;62742;52.136;4.500;2022-09-09T08:55:55;100631.41;;;17.16;77.12
72857;BME280;62742;52.136;4.500;2022-09-09T08:58:30;100627.59;;;17.02;78.53
72857;BME280;62742;52.136;4.500;2022-09-09T09:12:40;100632.13;;;17.00;79.23
72857;BME280;62742;52.136;4.500;2022-09-09T09:15:21;100636.59;;;17.00;79.51
72857;BME280;62742;52.136;4.500;2022-09-09T09:17:52;100637.28;;;17.04;79.29
72857;BME280;62742;52.136;4.500;2022-09-09T09:21:11;100646.34;;;17.18;79.70
72857;BME280;62742;52.136;4.500;2022-09-09T09:23:54;100638.22;;;17.02;80.78
72857;BME280;62742;52.136;4.500;2022-09-09T09:26:26;100637.69;;;16.94;81.14
72857;BME280;62742;52.136;4.500;2022-09-09T09:28:59;100634.78;;;17.00;80.55
72857;BME280;62742;52.136;4.500;2022-09-09T09:31:34;100641.91;;;17.19;81.36
72857;BME280;62742;52.136;4.500;2022-09-09T09:34:01;100638.59;;;17.14;81.98
72857;BME280;62742;52.136;4.500;2022-09-09T09:36:55;100626.94;;;16.97;82.25
72857;BME280;62742;52.136;4.500;2022-09-09T09:39:28;100632.63;;;17.09;82.58
72857;BME280;62742;52.136;4.500;2022-09-09T09:41:57;100630.91;;;17.08;82.68
72857;BME280;62742;52.136;4.500;2022-09-09T09:44:30;100623.03;;;17.25;82.39
72857;BME280;62742;52.136;4.500;2022-09-09T09:47:18;100624.22;;;17.56;83.29
72857;BME280;62742;52.136;4.500;2022-09-09T09:49:58;100619.00;;;17.72;83.45
72857;BME280;62742;52.136;4.500;2022-09-09T09:52:31;100624.25;;;17.73;83.69
72857;BME280;62742;52.136;4.500;2022-09-09T09:55:03;100624.41;;;17.70;83.57
72857;BME280;62742;52.136;4.500;2022-09-09T09:57:38;100627.19;;;17.86;82.45
72857;BME280;62742;52.136;4.500;2022-09-09T10:00:22;100624.31;;;17.91;81.38
72857;BME280;62742;52.136;4.500;2022-09-09T10:02:49;100626.19;;;17.89;81.77
72857;BME280;62742;52.136;4.500;2022-09-09T10:05:30;100630.91;;;17.82;81.67
72857;BME280;62742;52.136;4.500;2022-09-09T10:08:12;100626.59;;;17.99;82.17
72857;BME280;62742;52.136;4.500;2022-09-09T10:19:37;100621.84;;;18.23;80.89
72857;BME280;62742;52.136;4.500;2022-09-09T10:36:25;100637.22;;;17.80;80.78
72857;BME280;62742;52.136;4.500;2022-09-09T10:38:59;100633.78;;;17.77;81.75
72857;BME280;62742;52.136;4.500;2022-09-09T10:53:18;100613.16;;;17.83;80.98
72857;BME280;62742;52.136;4.500;2022-09-09T10:56:12;100612.56;;;17.95;81.02
72857;BME280;62742;52.136;4.500;2022-09-09T10:59:04;100610.25;;;18.24;80.15
72857;BME280;62742;52.136;4.500;2022-09-09T11:04:50;100613.59;;;18.78;81.60
72857;BME280;62742;52.136;4.500;2022-09-09T11:07:53;100618.56;;;18.86;80.83
72857;BME280;62742;52.136;4.500;2022-09-09T11:10:36;100615.56;;;18.75;79.34
72857;BME280;62742;52.136;4.500;2022-09-09T11:13:20;100620.94;;;18.91;79.20
72857;BME280;62742;52.136;4.500;2022-09-09T11:15:58;100608.78;;;19.02;79.59
72857;BME280;62742;52.136;4.500;2022-09-09T11:18:31;100605.72;;;19.10;78.09
72857;BME280;62742;52.136;4.500;2022-09-09T11:21:12;100610.91;;;18.96;77.40
72857;BME280;62742;52.136;4.500;2022-09-09T11:23:54;100612.13;;;18.90;77.96
72857;BME280;62742;52.136;4.500;2022-09-09T11:26:32;100610.56;;;18.86;74.81
72857;BME280;62742;52.136;4.500;2022-09-09T11:40:25;100620.19;;;18.71;77.49
72857;BME280;62742;52.136;4.500;2022-09-09T11:43:08;100614.66;;;18.58;78.05
72857;BME280;62742;52.136;4.500;2022-09-09T11:45:40;100618.47;;;18.70;78.84
72857;BME280;62742;52.136;4.500;2022-09-09T11:48:29;100614.88;;;18.71;79.18
72857;BME280;62742;52.136;4.500;2022-09-09T11:51:08;100623.53;;;18.59;78.41
72857;BME280;62742;52.136;4.500;2022-09-09T11:56:32;100604.47;;;18.33;79.52
72857;BME280;62742;52.136;4.500;2022-09-09T11:59:23;100618.69;;;18.32;80.69
72857;BME280;62742;52.136;4.500;2022-09-09T12:01:56;100624.25;;;18.10;80.80
72857;BME280;62742;52.136;4.500;2022-09-09T12:04:42;100625.34;;;18.06;81.15
72857;BME280;62742;52.136;4.500;2022-09-09T12:07:35;100620.72;;;18.27;80.60
72857;BME280;62742;52.136;4.500;2022-09-09T12:10:25;100623.59;;;18.57;80.62
72857;BME280;62742;52.136;4.500;2022-09-09T12:12:55;100630.47;;;18.61;81.02
72857;BME280;62742;52.136;4.500;2022-09-09T12:15:48;100624.75;;;18.69;80.60
72857;BME280;62742;52.136;4.500;2022-09-09T12:18:23;100629.03;;;18.72;78.68
72857;BME280;62742;52.136;4.500;2022-09-09T12:24:00;100627.16;;;18.91;80.71
72857;BME280;62742;52.136;4.500;2022-09-09T12:32:28;100633.25;;;18.93;80.87
72857;BME280;62742;52.136;4.500;2022-09-09T12:35:02;100639.38;;;18.78;79.19
72857;BME280;62742;52.136;4.500;2022-09-09T12:37:46;100635.38;;;18.86;80.44
72857;BME280;62742;52.136;4.500;2022-09-09T12:40:26;100634.38;;;18.72;79.95
72857;BME280;62742;52.136;4.500;2022-09-09T12:42:54;100639.75;;;18.70;80.90
72857;BME280;62742;52.136;4.500;2022-09-09T12:45:25;100634.81;;;18.80;78.91
72857;BME280;62742;52.136;4.500;2022-09-09T12:48:00;100640.22;;;18.96;80.14
72857;BME280;62742;52.136;4.500;2022-09-09T12:50:38;100641.69;;;19.01;78.20
72857;BME280;62742;52.136;4.500;2022-09-09T12:56:38;100642.03;;;18.95;79.54
72857;BME280;62742;52.136;4.500;2022-09-09T12:58:52;100645.91;;;19.05;79.45
72857;BME280;62742;52.136;4.500;2022-09-09T13:01:26;100634.41;;;19.05;78.59
72857;BME280;62742;52.136;4.500;2022-09-09T13:03:55;100633.78;;;19.00;78.90
72857;BME280;62742;52.136;4.500;2022-09-09T13:06:28;100641.72;;;18.84;78.60
72857;BME280;62742;52.136;4.500;2022-09-09T13:09:00;100637.28;;;18.84;78.02
72857;BME280;62742;52.136;4.500;2022-09-09T13:11:45;100634.88;;;18.96;77.33
72857;BME280;62742;52.136;4.500;2022-09-09T13:14:29;100644.69;;;18.95;77.27
72857;BME280;62742;52.136;4.500;2022-09-09T13:17:02;100642.88;;;18.96;77.18
72857;BME280;62742;52.136;4.500;2022-09-09T13:19:36;100633.94;;;18.97;77.24
72857;BME280;62742;52.136;4.500;2022-09-09T13:22:31;100634.47;;;19.03;77.35
72857;BME280;62742;52.136;4.500;2022-09-09T13:27:40;100633.50;;;19.04;76.72
72857;BME280;62742;52.136;4.500;2022-09-09T13:35:56;100656.16;;;19.13;79.10
72857;BME280;62742;52.136;4.500;2022-09-09T13:38:25;100648.78;;;19.34;77.77
72857;BME280;62742;52.136;4.500;2022-09-09T13:40:56;100649.63;;;19.35;78.53
72857;BME280;62742;52.136;4.500;2022-09-09T13:43:26;100642.69;;;19.32;79.15
72857;BME280;62742;52.136;4.500;2022-09-09T13:46:00;100645.44;;;19.31;79.29
72857;BME280;62742;52.136;4.500;2022-09-09T13:48:28;100638.97;;;19.19;79.46
72857;BME280;62742;52.136;4.500;2022-09-09T13:50:58;100647.44;;;18.94;78.64
72857;BME280;62742;52.136;4.500;2022-09-09T13:53:27;100652.91;;;18.91;80.00
72857;BME280;62742;52.136;4.500;2022-09-09T13:55:54;100653.09;;;18.87;79.70
72857;BME280;62742;52.136;4.500;2022-09-09T13:58:22;100649.88;;;18.81;79.50
72857;BME280;62742;52.136;4.500;2022-09-09T14:00:52;100649.81;;;18.82;78.88
72857;BME280;62742;52.136;4.500;2022-09-09T14:03:20;100653.81;;;18.56;76.56
72857;BME280;62742;52.136;4.500;2022-09-09T14:05:47;100652.34;;;18.33;76.32
72857;BME280;62742;52.136;4.500;2022-09-09T14:08:24;100657.50;;;18.19;76.82
72857;BME280;62742;52.136;4.500;2022-09-09T14:10:52;100654.53;;;18.07;77.16
72857;BME280;62742;52.136;4.500;2022-09-09T14:13:21;100650.59;;;17.97;77.24
72857;BME280;62742;52.136;4.500;2022-09-09T14:15:48;100651.94;;;18.06;77.58
72857;BME280;62742;52.136;4.500;2022-09-09T14:18:15;100652.22;;;18.00;77.58
72857;BME280;62742;52.136;4.500;2022-09-09T14:20:42;100651.88;;;18.07;78.10
72857;BME280;62742;52.136;4.500;2022-09-09T14:23:11;100662.09;;;17.98;77.99
72857;BME280;62742;52.136;4.500;2022-09-09T14:25:44;100670.44;;;17.90;78.94
72857;BME280;62742;52.136;4.500;2022-09-09T14:28:13;100669.56;;;17.89;79.72
72857;BME280;62742;52.136;4.500;2022-09-09T14:30:41;100666.94;;;18.07;79.31
72857;BME280;62742;52.136;4.500;2022-09-09T14:33:14;100667.44;;;18.50;78.97
72857;BME280;62742;52.136;4.500;2022-09-09T14:35:42;100658.72;;;18.81;78.95
72857;BME280;62742;52.136;4.500;2022-09-09T14:38:10;100658.22;;;18.91;78.38
72857;BME280;62742;52.136;4.500;2022-09-09T14:40:37;100647.63;;;19.06;78.90
72857;BME280;62742;52.136;4.500;2022-09-09T14:43:05;100653.66;;;19.26;77.37
72857;BME280;62742;52.136;4.500;2022-09-09T14:45:32;100663.47;;;19.41;77.64
72857;BME280;62742;52.136;4.500;2022-09-09T14:47:58;100665.19;;;19.58;77.71
72857;BME280;62742;52.136;4.500;2022-09-09T14:50:25;100670.97;;;19.83;77.25
72857;BME280;62742;52.136;4.500;2022-09-09T14:52:52;100667.72;;;20.24;76.79
72857;BME280;62742;52.136;4.500;2022-09-09T14:55:19;100657.84;;;20.70;76.43
72857;BME280;62742;52.136;4.500;2022-09-09T14:57:45;100662.81;;;20.91;73.37
72857;BME280;62742;52.136;4.500;2022-09-09T15:00:12;100664.72;;;20.74;73.25
72857;BME280;62742;52.136;4.500;2022-09-09T15:02:39;100659.44;;;20.28;74.95
72857;BME280;62742;52.136;4.500;2022-09-09T15:05:06;100654.53;;;19.90;74.75
72857;BME280;62742;52.136;4.500;2022-09-09T15:07:33;100661.28;;;19.82;75.49
72857;BME280;62742;52.136;4.500;2022-09-09T15:10:00;100665.72;;;19.49;76.88
72857;BME280;62742;52.136;4.500;2022-09-09T15:12:26;100671.56;;;19.40;77.22
72857;BME280;62742;52.136;4.500;2022-09-09T15:14:54;100679.09;;;19.32;77.88
72857;BME280;62742;52.136;4.500;2022-09-09T15:17:21;100667.59;;;19.31;78.54
72857;BME280;62742;52.136;4.500;2022-09-09T15:19:47;100684.78;;;19.25;78.41
72857;BME280;62742;52.136;4.500;2022-09-09T15:22:16;100678.50;;;19.27;77.22
72857;BME280;62742;52.136;4.500;2022-09-09T15:24:42;100679.94;;;19.16;77.77